createdAt,value
2018-09-11T00:00:34.677Z,99543.11
2018-09-11T00:03:39.644Z,99541.77
2018-09-11T00:06:44.589Z,99538.27
2018-09-11T00:09:49.594Z,99540.97
2018-09-11T00:12:54.561Z,99541.66
2018-09-11T00:15:59.533Z,99538.95
2018-09-11T00:19:04.557Z,99536.94
2018-09-11T00:22:09.504Z,99541.30
2018-09-11T00:25:14.448Z,99545.84
2018-09-11T00:28:19.398Z,99548.18
2018-09-11T00:31:24.333Z,99542.77
2018-09-11T00:34:29.244Z,99545.27
2018-09-11T00:37:34.195Z,99537.11
2018-09-11T00:40:39.141Z,99534.12
2018-09-11T00:43:44.049Z,99541.95
2018-09-11T00:46:48.984Z,99535.61
2018-09-11T00:49:53.925Z,99538.06
2018-09-11T00:52:59.073Z,99553.86
2018-09-11T00:56:04.041Z,99545.89
2018-09-11T00:59:08.968Z,99544.48
2018-09-11T01:02:13.882Z,99546.73
2018-09-11T01:05:18.794Z,99547.78
2018-09-11T01:08:23.709Z,99547.58
2018-09-11T01:11:28.621Z,99546.05
2018-09-11T01:14:33.580Z,99545.95
2018-09-11T01:17:38.548Z,99540.73
2018-09-11T01:20:43.517Z,99535.04
2018-09-11T01:23:48.442Z,99538.98
2018-09-11T01:26:53.356Z,99546.52
2018-09-11T01:29:58.283Z,99542.98
2018-09-11T01:33:03.250Z,99547.82
2018-09-11T01:36:08.236Z,99548.25
2018-09-11T01:39:13.613Z,99559.13
2018-09-11T01:42:18.526Z,99560.05
2018-09-11T01:45:23.497Z,99559.46
2018-09-11T01:48:28.439Z,99562.38
2018-09-11T01:51:33.448Z,99572.98
2018-09-11T01:54:38.418Z,99572.27
2018-09-11T01:57:43.370Z,99577.13
2018-09-11T02:00:48.324Z,99584.38
2018-09-11T02:03:53.275Z,99591.50
2018-09-11T02:06:58.320Z,99589.99
2018-09-11T02:10:03.265Z,99593.88
2018-09-11T02:13:08.260Z,99594.61
2018-09-11T02:16:13.281Z,99601.86
2018-09-11T02:19:18.209Z,99594.11
2018-09-11T02:22:23.202Z,99597.45
2018-09-11T02:25:28.152Z,99602.80
2018-09-11T02:28:33.126Z,99599.86
2018-09-11T02:31:38.054Z,99600.72
2018-09-11T02:34:43.012Z,99600.59
2018-09-11T02:37:48.192Z,99600.98
2018-09-11T02:40:53.112Z,99595.60
2018-09-11T02:43:58.106Z,99597.16
2018-09-11T02:47:03.058Z,99597.47
2018-09-11T02:50:08.373Z,99595.55
2018-09-11T02:53:13.341Z,99601.64
2018-09-11T02:56:18.264Z,99601.88
2018-09-11T02:59:23.194Z,99603.84
2018-09-11T03:02:28.121Z,99613.27
2018-09-11T03:05:33.120Z,99615.95
2018-09-11T03:08:38.077Z,99608.44
2018-09-11T03:11:43.033Z,99616.94
2018-09-11T03:14:47.968Z,99622.75
2018-09-11T03:17:52.902Z,99623.91
2018-09-11T03:20:57.861Z,99628.44
2018-09-11T03:24:02.802Z,99629.33
2018-09-11T03:27:07.778Z,99631.77
2018-09-11T03:30:12.745Z,99630.88
2018-09-11T03:33:17.702Z,99627.28
2018-09-11T03:36:22.665Z,99629.09
2018-09-11T03:39:27.637Z,99631.67
2018-09-11T03:42:32.594Z,99633.75
2018-09-11T03:45:41.396Z,99630.94
2018-09-11T03:48:46.407Z,99633.16
2018-09-11T03:51:51.332Z,99625.31
2018-09-11T03:54:56.289Z,99619.89
2018-09-11T03:58:01.423Z,99625.84
2018-09-11T04:01:06.401Z,99620.66
2018-09-11T04:04:11.343Z,99623.91
2018-09-11T04:07:16.301Z,99620.52
2018-09-11T04:10:21.241Z,99619.91
2018-09-11T04:13:26.205Z,99614.62
2018-09-11T04:16:31.154Z,99613.07
2018-09-11T04:19:36.097Z,99616.14
2018-09-11T04:22:41.070Z,99628.78
2018-09-11T04:25:46.090Z,99627.10
2018-09-11T04:28:51.023Z,99623.63
2018-09-11T04:31:55.993Z,99631.50
2018-09-11T04:35:00.924Z,99637.81
2018-09-11T04:38:05.961Z,99642.21
2018-09-11T04:41:11.017Z,99638.84
2018-09-11T04:44:15.938Z,99641.95
2018-09-11T04:47:20.910Z,99648.25
2018-09-11T04:50:25.844Z,99639.12
2018-09-11T04:53:30.802Z,99640.53
2018-09-11T04:56:35.769Z,99639.36
2018-09-11T04:59:40.719Z,99637.83
2018-09-11T05:02:45.660Z,99637.08
2018-09-11T05:05:50.582Z,99643.23
2018-09-11T05:08:55.534Z,99639.38
2018-09-11T05:12:00.512Z,99646.45
2018-09-11T05:15:05.488Z,99645.16
2018-09-11T05:18:10.482Z,99645.30
2018-09-11T05:21:15.421Z,99652.23
2018-09-11T05:24:20.375Z,99655.59
2018-09-11T05:27:25.386Z,99658.45
2018-09-11T05:30:30.299Z,99654.07
2018-09-11T05:33:35.265Z,99663.07
2018-09-11T05:36:40.196Z,99661.03
2018-09-11T05:39:45.149Z,99668.20
2018-09-11T05:42:50.085Z,99670.42
2018-09-11T05:45:55.055Z,99661.54
2018-09-11T05:49:00.010Z,99673.59
2018-09-11T05:52:05.101Z,99674.38
2018-09-11T05:55:10.067Z,99677.70
2018-09-11T05:58:15.031Z,99674.63
2018-09-11T06:01:20.031Z,99677.72
2018-09-11T06:04:24.937Z,99671.81
2018-09-11T06:07:29.952Z,99669.99
2018-09-11T06:10:34.893Z,99668.45
2018-09-11T06:13:39.806Z,99675.11
2018-09-11T06:16:44.738Z,99663.54
2018-09-11T06:19:49.659Z,99661.17
2018-09-11T06:22:56.062Z,99667.42
2018-09-11T06:26:01.029Z,99658.45
2018-09-11T06:29:06.008Z,99661.46
2018-09-11T06:32:10.894Z,99653.08
2018-09-11T06:35:15.805Z,99656.28
2018-09-11T06:38:20.723Z,99653.12
2018-09-11T06:41:25.692Z,99650.42
2018-09-11T06:44:30.618Z,99653.95
2018-09-11T06:47:35.545Z,99649.86
2018-09-11T06:50:40.492Z,99643.57
2018-09-11T06:53:45.440Z,99643.23
2018-09-11T06:56:50.379Z,99644.87
2018-09-11T06:59:55.298Z,99647.73
2018-09-11T07:03:00.230Z,99644.67
2018-09-11T07:06:05.233Z,99649.58
2018-09-11T07:09:10.676Z,99642.54
2018-09-11T07:12:16.553Z,99639.03
2018-09-11T07:15:21.553Z,99643.79
2018-09-11T07:18:26.755Z,99640.65
2018-09-11T07:21:31.770Z,99635.94
2018-09-11T07:24:37.060Z,99636.59
2018-09-11T07:27:42.047Z,99634.07
2018-09-11T07:30:47.082Z,99628.37
2018-09-11T07:33:52.029Z,99626.10
2018-09-11T07:36:57.144Z,99626.29
2018-09-11T07:40:02.134Z,99617.22
2018-09-11T07:43:07.181Z,99616.08
2018-09-11T07:46:12.147Z,99627.48
2018-09-11T07:49:17.134Z,99623.75
2018-09-11T07:52:22.128Z,99632.77
2018-09-11T07:55:27.250Z,99628.06
2018-09-11T07:58:32.220Z,99637.17
2018-09-11T08:01:37.190Z,99636.94
2018-09-11T08:04:42.135Z,99640.88
2018-09-11T08:07:47.130Z,99641.80
2018-09-11T08:10:52.062Z,99640.06
2018-09-11T08:13:57.009Z,99640.29
2018-09-11T08:17:02.010Z,99639.73
2018-09-11T08:20:06.985Z,99640.23
2018-09-11T08:23:12.003Z,99642.86
2018-09-11T08:26:16.929Z,99640.24
2018-09-11T08:29:21.951Z,99638.91
2018-09-11T08:32:26.862Z,99638.61
2018-09-11T08:35:31.822Z,99638.34
2018-09-11T08:38:36.748Z,99639.18
2018-09-11T08:41:41.675Z,99637.14
2018-09-11T08:44:46.596Z,99641.89
2018-09-11T08:47:52.317Z,99638.55
2018-09-11T08:50:57.218Z,99644.44
2018-09-11T08:54:02.124Z,99643.34
2018-09-11T08:57:07.084Z,99645.27
2018-09-11T09:00:12.012Z,99647.48
2018-09-11T09:03:16.943Z,99653.48
2018-09-11T09:06:21.869Z,99650.63
2018-09-11T09:09:26.789Z,99644.03
2018-09-11T09:12:31.737Z,99642.27
2018-09-11T09:15:36.698Z,99647.83
2018-09-11T09:18:41.632Z,99648.93
2018-09-11T09:21:46.558Z,99644.09
2018-09-11T09:24:51.510Z,99652.06
2018-09-11T09:27:56.449Z,99643.59
2018-09-11T09:31:01.397Z,99639.55
2018-09-11T09:34:06.376Z,99643.60
2018-09-11T09:37:11.693Z,99637.50
2018-09-11T09:40:16.686Z,99629.95
2018-09-11T09:43:21.651Z,99626.21
2018-09-11T09:46:26.590Z,99625.09
2018-09-11T09:49:31.548Z,99627.32
2018-09-11T09:52:36.508Z,99625.47
2018-09-11T09:55:41.517Z,99630.02
2018-09-11T09:58:46.729Z,99620.89
2018-09-11T10:01:57.445Z,99630.02
2018-09-11T10:05:02.444Z,99617.28
2018-09-11T10:08:07.421Z,99602.62
2018-09-11T10:11:12.341Z,99603.77
2018-09-11T10:14:17.290Z,99605.37
2018-09-11T10:17:22.276Z,99589.84
2018-09-11T10:20:27.235Z,99596.62
2018-09-11T10:23:32.184Z,99599.86
2018-09-11T10:26:37.126Z,99598.10
2018-09-11T10:29:42.155Z,99586.50
2018-09-11T10:32:47.090Z,99591.73
2018-09-11T10:35:52.077Z,99598.37
2018-09-11T10:38:57.045Z,99584.58
2018-09-11T10:42:02.029Z,99578.73
2018-09-11T10:45:07.127Z,99582.44
2018-09-11T10:48:11.997Z,99580.45
2018-09-11T10:51:16.954Z,99574.66
2018-09-11T10:54:21.972Z,99570.75
2018-09-11T10:57:26.918Z,99569.55
2018-09-11T11:00:31.895Z,99556.50
2018-09-11T11:03:36.844Z,99563.32
2018-09-11T11:06:41.784Z,99548.94
2018-09-11T11:09:46.879Z,99548.56
2018-09-11T11:12:51.836Z,99539.66
2018-09-11T11:15:56.796Z,99542.06
2018-09-11T11:19:01.764Z,99535.80
2018-09-11T11:22:06.744Z,99523.09
2018-09-11T11:25:11.701Z,99532.11
2018-09-11T11:28:16.647Z,99539.76
2018-09-11T11:31:21.650Z,99547.45
2018-09-11T11:34:26.611Z,99540.27
2018-09-11T11:37:31.579Z,99531.80
2018-09-11T11:40:36.645Z,99533.44
2018-09-11T11:43:41.615Z,99537.70
2018-09-11T11:46:46.581Z,99534.98
2018-09-11T11:49:52.112Z,99537.40
2018-09-11T11:52:57.088Z,99537.52
2018-09-11T11:56:02.063Z,99534.22
2018-09-11T11:59:07.003Z,99527.56
2018-09-11T12:02:11.956Z,99523.09
2018-09-11T12:05:16.979Z,99534.14
2018-09-11T12:08:21.930Z,99537.88
2018-09-11T12:14:28.729Z,99528.87
2018-09-11T12:17:34.157Z,99519.32
2018-09-11T12:20:39.558Z,99523.39
2018-09-11T12:23:44.603Z,99515.31
2018-09-11T12:26:50.052Z,99512.24
2018-09-11T12:29:54.933Z,99507.02
2018-09-11T12:33:00.071Z,99498.41
2018-09-11T12:36:05.578Z,99506.01
2018-09-11T12:39:11.169Z,99492.55
2018-09-11T12:42:16.514Z,99502.97
2018-09-11T12:45:21.920Z,99496.07
2018-09-11T12:48:27.011Z,99493.27
2018-09-11T12:51:31.914Z,99485.27
2018-09-11T12:54:36.873Z,99500.95
2018-09-11T12:57:42.226Z,99487.11
2018-09-11T13:00:47.340Z,99480.77
2018-09-11T13:03:52.328Z,99478.24
2018-09-11T13:06:57.610Z,99486.00
2018-09-11T13:10:02.839Z,99474.73
2018-09-11T13:13:07.901Z,99470.20
2018-09-11T13:16:13.094Z,99478.80
2018-09-11T13:19:18.194Z,99477.60
2018-09-11T13:22:23.383Z,99463.57
2018-09-11T13:25:28.657Z,99477.33
2018-09-11T13:28:33.736Z,99468.72
2018-09-11T13:31:38.717Z,99475.76
2018-09-11T13:34:43.695Z,99472.03
2018-09-11T13:37:49.589Z,99476.51
2018-09-11T13:40:54.581Z,99469.95
2018-09-11T13:43:59.627Z,99463.66
2018-09-11T13:47:05.122Z,99455.77
2018-09-11T13:50:10.010Z,99450.45
2018-09-11T13:53:15.478Z,99452.09
2018-09-11T13:56:20.853Z,99455.97
2018-09-11T13:59:25.989Z,99454.05
2018-09-11T14:02:31.404Z,99444.26
2018-09-11T14:05:36.375Z,99446.53
2018-09-11T14:08:41.608Z,99438.41
2018-09-11T14:11:46.489Z,99439.28
2018-09-11T14:14:51.415Z,99432.14
2018-09-11T14:17:56.371Z,99435.06
2018-09-11T14:21:01.311Z,99426.22
2018-09-11T14:24:06.270Z,99430.86
2018-09-11T14:27:11.232Z,99432.62
2018-09-11T14:30:16.208Z,99427.58
2018-09-11T14:33:21.206Z,99439.05
2018-09-11T14:36:26.156Z,99432.73
2018-09-11T14:39:31.108Z,99428.69
2018-09-11T14:42:36.089Z,99422.54
2018-09-11T14:45:41.112Z,99413.83
2018-09-11T14:48:46.081Z,99419.15
2018-09-11T14:51:51.091Z,99420.61
2018-09-11T14:54:56.052Z,99417.68
2018-09-11T14:58:01.025Z,99412.53
2018-09-11T15:01:06.266Z,99414.20
2018-09-11T15:04:11.263Z,99404.27
2018-09-11T15:07:16.237Z,99401.23
2018-09-11T15:10:21.230Z,99408.45
2018-09-11T15:13:26.205Z,99407.09
2018-09-11T15:16:31.185Z,99405.80
2018-09-11T15:19:36.206Z,99404.97
2018-09-11T15:22:41.242Z,99397.16
2018-09-11T15:25:46.142Z,99393.11
2018-09-11T15:28:51.099Z,99385.82
2018-09-11T15:31:56.066Z,99391.97
2018-09-11T15:35:01.032Z,99396.31
2018-09-11T15:38:06.038Z,99392.84
2018-09-11T15:41:12.232Z,99390.52
2018-09-11T15:44:17.233Z,99395.34
2018-09-11T15:47:22.694Z,99389.76
2018-09-11T15:50:27.833Z,99389.13
2018-09-11T15:53:32.869Z,99383.43
2018-09-11T15:56:38.139Z,99379.56
2018-09-11T15:59:43.900Z,99380.91
2018-09-11T16:02:49.139Z,99380.70
2018-09-11T16:05:54.635Z,99377.92
2018-09-11T16:08:59.597Z,99369.63
2018-09-11T16:12:04.824Z,99363.91
2018-09-11T16:15:09.915Z,99369.63
2018-09-11T16:18:15.105Z,99363.68
2018-09-11T16:21:20.041Z,99366.52
2018-09-11T16:24:25.059Z,99360.03
2018-09-11T16:27:30.168Z,99361.59
2018-09-11T16:30:35.383Z,99357.20
2018-09-11T16:33:40.381Z,99345.45
2018-09-11T16:36:45.889Z,99352.61
2018-09-11T16:39:51.157Z,99360.45
2018-09-11T16:42:56.588Z,99354.32
2018-09-11T16:46:01.623Z,99359.76
2018-09-11T16:49:07.403Z,99357.86
2018-09-11T16:52:12.365Z,99359.84
2018-09-11T16:55:17.411Z,99362.98
2018-09-11T16:58:22.430Z,99357.50
2018-09-11T17:01:27.441Z,99349.23
2018-09-11T17:04:33.871Z,99360.38
2018-09-11T17:07:38.930Z,99357.59
2018-09-11T17:10:44.249Z,99361.61
2018-09-11T17:13:49.442Z,99357.77
2018-09-11T17:16:54.929Z,99357.39
2018-09-11T17:20:00.206Z,99352.94
2018-09-11T17:23:05.200Z,99354.67
2018-09-11T17:26:10.376Z,99365.73
2018-09-11T17:29:15.556Z,99362.13
2018-09-11T17:32:20.523Z,99363.50
2018-09-11T17:35:25.519Z,99364.81
2018-09-11T17:38:30.517Z,99364.72
2018-09-11T17:41:35.850Z,99371.25
2018-09-11T17:44:41.070Z,99363.08
2018-09-11T17:47:46.229Z,99368.08
2018-09-11T17:50:51.653Z,99375.40
2018-09-11T17:53:56.865Z,99366.63
2018-09-11T17:57:01.862Z,99371.34
2018-09-11T18:00:07.686Z,99380.27
2018-09-11T18:03:12.721Z,99384.84
2018-09-11T18:06:17.663Z,99385.00
2018-09-11T18:09:22.914Z,99382.98
2018-09-11T18:12:28.314Z,99389.87
2018-09-11T18:15:33.467Z,99397.23
2018-09-11T18:18:38.409Z,99395.63
2018-09-11T18:21:43.377Z,99404.08
2018-09-11T18:24:48.710Z,99401.11
2018-09-11T18:27:54.049Z,99408.39
2018-09-11T18:30:58.994Z,99410.39
2018-09-11T18:34:03.941Z,99417.36
2018-09-11T18:37:08.948Z,99414.37
2018-09-11T18:40:14.118Z,99423.53
2018-09-11T18:43:19.434Z,99420.47
2018-09-11T18:46:24.415Z,99418.47
2018-09-11T18:49:29.350Z,99421.16
2018-09-11T18:52:34.562Z,99416.58
2018-09-11T18:55:39.753Z,99423.08
2018-09-11T18:58:44.702Z,99428.12
2018-09-11T19:01:49.713Z,99430.12
2018-09-11T19:04:55.040Z,99429.17
2018-09-11T19:08:00.553Z,99432.45
2018-09-11T19:11:05.620Z,99430.37
2018-09-11T19:14:10.676Z,99426.50
2018-09-11T19:17:15.611Z,99434.32
2018-09-11T19:20:20.632Z,99429.47
2018-09-11T19:23:25.485Z,99429.88
2018-09-11T19:26:30.420Z,99424.77
2018-09-11T19:29:35.353Z,99432.60
2018-09-11T19:32:40.809Z,99433.48
2018-09-11T19:35:45.754Z,99439.73
2018-09-11T19:38:50.690Z,99436.22
2018-09-11T19:41:55.638Z,99440.67
2018-09-11T19:45:00.582Z,99435.14
2018-09-11T19:48:05.541Z,99438.28
2018-09-11T19:51:10.517Z,99444.13
2018-09-11T19:54:15.437Z,99441.98
2018-09-11T19:57:20.438Z,99449.46
2018-09-11T20:00:25.370Z,99449.94
2018-09-11T20:03:30.309Z,99452.54
2018-09-11T20:06:35.277Z,99455.45
2018-09-11T20:09:40.188Z,99453.47
2018-09-11T20:12:45.131Z,99458.92
2018-09-11T20:15:50.069Z,99455.32
2018-09-11T20:18:55.023Z,99459.30
2018-09-11T20:21:59.977Z,99453.11
2018-09-11T20:25:05.006Z,99455.03
2018-09-11T20:28:09.967Z,99457.59
2018-09-11T20:31:14.902Z,99467.73
2018-09-11T20:34:19.829Z,99464.45
2018-09-11T20:37:24.810Z,99464.95
2018-09-11T20:40:29.737Z,99467.56
2018-09-11T20:43:34.669Z,99462.89
2018-09-11T20:46:39.766Z,99467.09
2018-09-11T20:49:44.684Z,99465.98
2018-09-11T20:52:49.632Z,99463.73
2018-09-11T20:55:54.627Z,99466.64
2018-09-11T20:58:59.618Z,99469.97
2018-09-11T21:02:04.617Z,99462.70
2018-09-11T21:05:09.525Z,99469.85
2018-09-11T21:08:14.459Z,99469.55
2018-09-11T21:11:19.379Z,99471.96
2018-09-11T21:14:24.302Z,99464.91
2018-09-11T21:17:29.280Z,99471.09
2018-09-11T21:20:34.201Z,99479.28
2018-09-11T21:23:39.183Z,99475.70
2018-09-11T21:26:44.105Z,99476.51
2018-09-11T21:29:48.998Z,99472.70
2018-09-11T21:32:53.919Z,99481.47
2018-09-11T21:35:58.841Z,99479.80
2018-09-11T21:39:06.200Z,99481.69
2018-09-11T21:42:11.152Z,99482.50
2018-09-11T21:45:16.107Z,99482.89
2018-09-11T21:48:21.041Z,99484.26
2018-09-11T21:51:25.973Z,99481.30
2018-09-11T21:54:30.910Z,99480.19
2018-09-11T21:57:35.868Z,99475.70
2018-09-11T22:04:18.180Z,99479.64
2018-09-11T22:07:23.118Z,99478.73
2018-09-11T22:10:28.081Z,99491.47
2018-09-11T22:13:33.063Z,99486.04
2018-09-11T22:16:38.621Z,99480.67
2018-09-11T22:19:43.569Z,99477.88
2018-09-11T22:22:48.508Z,99474.09
2018-09-11T22:25:53.457Z,99477.35
2018-09-11T22:28:58.580Z,99473.76
2018-09-11T22:32:03.547Z,99469.97
2018-09-11T22:35:08.486Z,99465.69
2018-09-11T22:38:13.442Z,99473.33
2018-09-11T22:41:18.428Z,99473.82
2018-09-11T22:44:23.402Z,99473.50
2018-09-11T22:47:28.315Z,99469.91
2018-09-11T22:50:33.298Z,99470.08
2018-09-11T22:53:38.245Z,99467.41
2018-09-11T22:56:43.160Z,99467.41
2018-09-11T22:59:48.097Z,99467.30
2018-09-11T23:02:53.022Z,99462.41
2018-09-11T23:05:57.954Z,99466.97
2018-09-11T23:09:04.306Z,99470.66
2018-09-11T23:12:09.301Z,99466.53
2018-09-11T23:15:14.353Z,99465.93
2018-09-11T23:18:19.282Z,99465.41
2018-09-11T23:21:24.170Z,99465.57
2018-09-11T23:24:29.081Z,99470.14
2018-09-11T23:27:34.173Z,99460.68
2018-09-11T23:30:39.133Z,99463.19
2018-09-11T23:33:44.083Z,99457.45
2018-09-11T23:36:49.037Z,99452.64
2018-09-11T23:39:53.951Z,99451.27
2018-09-11T23:42:58.871Z,99453.73
2018-09-11T23:46:03.823Z,99449.93
2018-09-11T23:49:08.770Z,99439.36
2018-09-11T23:52:13.706Z,99443.02
2018-09-11T23:55:18.653Z,99439.42
2018-09-11T23:58:23.660Z,99440.79
